Time;durP1;ratioP1;P1;durP2;ratioP2;P2;SDS_P1;SDS_P2;PMS_P1;PMS_P2;Temp;Humidity;BMP_temperature;BMP_pressure;BME280_temperature;BME280_humidity;BME280_pressure;Samples;Min_cycle;Max_cycle;Signal;HPM_P1;HPM_P2
2022/03/25 00:00:07;;;;;;;34.00;22.45;;;13.50;35.40;;;;;;5031990;28;20017;-59
2022/03/25 00:02:33;;;;;;;34.15;21.25;;;13.50;35.80;;;;;;5013751;28;20524;-58
2022/03/25 00:04:58;;;;;;;35.10;22.15;;;13.40;36.00;;;;;;5031796;28;20033;-59
2022/03/25 00:07:26;;;;;;;42.92;22.80;;;13.30;36.20;;;;;;5031657;28;20030;-59
2022/03/25 00:09:52;;;;;;;40.47;23.00;;;13.20;36.40;;;;;;5032019;28;20088;-56
2022/03/25 00:12:17;;;;;;;38.35;21.30;;;13.10;36.50;;;;;;5031423;28;20050;-59
2022/03/25 00:14:44;;;;;;;37.67;22.83;;;13.10;36.60;;;;;;5033413;28;20033;-58
2022/03/25 00:17:11;;;;;;;38.78;22.67;;;13.10;36.70;;;;;;5034564;28;20044;-58
2022/03/25 00:19:36;;;;;;;37.45;21.40;;;13.00;36.80;;;;;;5016218;28;20104;-58
2022/03/25 00:22:02;;;;;;;37.88;20.98;;;13.00;37.00;;;;;;5034289;28;20025;-59
2022/03/25 00:24:28;;;;;;;34.30;21.77;;;13.00;36.90;;;;;;5016198;28;20025;-61
2022/03/25 00:26:54;;;;;;;38.00;21.92;;;12.90;36.90;;;;;;5034621;28;20040;-59
2022/03/25 00:29:19;;;;;;;37.25;22.15;;;12.90;37.00;;;;;;5016931;28;20041;-57
2022/03/25 00:31:46;;;;;;;33.10;21.00;;;12.80;37.10;;;;;;5034386;28;20394;-58
2022/03/25 00:34:12;;;;;;;38.03;23.63;;;12.80;37.10;;;;;;5035302;28;20056;-56
2022/03/25 00:36:39;;;;;;;41.10;23.63;;;12.70;37.20;;;;;;5034008;28;20125;-59
2022/03/25 00:39:05;;;;;;;36.20;21.63;;;12.70;37.30;;;;;;5033995;28;20045;-57
2022/03/25 00:41:32;;;;;;;32.78;20.55;;;12.60;37.30;;;;;;5015723;28;20083;-57
2022/03/25 00:43:58;;;;;;;33.58;21.50;;;12.60;37.30;;;;;;5034282;28;20029;-59
2022/03/25 00:46:43;;;;;;;40.10;21.88;;;12.50;37.20;;;;;;5034257;28;20103;-58
2022/03/25 00:49:08;;;;;;;36.22;20.60;;;12.60;37.20;;;;;;5034510;28;20034;-58
2022/03/25 00:51:34;;;;;;;35.55;21.48;;;12.60;37.10;;;;;;5015834;28;20358;-60
2022/03/25 00:54:02;;;;;;;36.08;22.20;;;12.60;37.10;;;;;;5000272;28;20120;-59
2022/03/25 00:56:28;;;;;;;35.28;21.13;;;12.60;37.10;;;;;;5033532;28;20026;-58
2022/03/25 00:58:53;;;;;;;37.85;21.33;;;12.50;37.20;;;;;;5015838;28;20055;-60
2022/03/25 01:01:19;;;;;;;34.33;20.88;;;12.40;37.40;;;;;;5034572;28;20514;-60
2022/03/25 01:03:45;;;;;;;36.33;21.88;;;12.40;37.50;;;;;;5015957;28;20107;-59
2022/03/25 01:06:11;;;;;;;33.40;21.25;;;12.30;37.60;;;;;;5034640;28;20450;-58
2022/03/25 01:08:36;;;;;;;37.10;20.20;;;12.30;37.60;;;;;;5015798;28;20049;-59
2022/03/25 01:11:04;;;;;;;39.90;19.92;;;12.30;37.60;;;;;;5016379;28;20642;-58
2022/03/25 01:13:33;;;;;;;33.83;20.48;;;12.30;37.50;;;;;;4974970;28;1198957;-57
2022/03/25 01:16:05;;;;;;;35.20;20.35;;;12.30;37.50;;;;;;5034734;28;20041;-58
2022/03/25 01:18:31;;;;;;;33.58;20.67;;;12.30;37.50;;;;;;5034187;28;20045;-60
2022/03/25 01:20:57;;;;;;;36.75;20.48;;;12.30;37.50;;;;;;5034058;28;20111;-58
2022/03/25 01:23:24;;;;;;;37.95;19.10;;;12.30;37.50;;;;;;5034111;28;20029;-59
2022/03/25 01:25:50;;;;;;;33.88;21.30;;;12.30;37.60;;;;;;5015884;28;20025;-59
2022/03/25 01:28:16;;;;;;;32.10;19.85;;;12.20;37.90;;;;;;5015928;28;20128;-58
2022/03/25 01:30:43;;;;;;;36.83;20.35;;;12.20;38.00;;;;;;5033481;28;20037;-59
2022/03/25 01:33:09;;;;;;;33.90;20.40;;;12.10;38.20;;;;;;5034560;28;20120;-58
2022/03/25 01:35:36;;;;;;;34.00;21.20;;;12.00;38.20;;;;;;4999495;28;20060;-59
2022/03/25 01:38:03;;;;;;;38.92;23.08;;;12.00;38.10;;;;;;5016509;28;20079;-60
2022/03/25 01:40:29;;;;;;;31.88;20.83;;;12.00;38.20;;;;;;5016849;28;20036;-54
2022/03/25 01:42:56;;;;;;;35.50;19.88;;;12.00;38.30;;;;;;5016571;28;20466;-59
2022/03/25 01:45:35;;;;;;;30.92;20.30;;;12.00;38.40;;;;;;5016516;28;20160;-55
2022/03/25 01:48:06;;;;;;;33.38;19.73;;;11.90;38.70;;;;;;5034401;28;20021;-59
2022/03/25 01:50:32;;;;;;;34.58;20.60;;;11.90;38.70;;;;;;5017218;28;20022;-58
2022/03/25 01:52:59;;;;;;;33.60;19.80;;;11.80;38.70;;;;;;5016366;28;20191;-59
2022/03/25 01:55:26;;;;;;;33.55;20.42;;;11.70;38.60;;;;;;5033850;28;20037;-59
2022/03/25 01:57:57;;;;;;;37.78;20.27;;;11.70;38.70;;;;;;5000131;28;20491;-59
2022/03/25 02:00:28;;;;;;;28.90;19.05;;;11.70;38.80;;;;;;5000541;28;20450;-58
2022/03/25 02:02:54;;;;;;;38.08;19.25;;;11.70;38.90;;;;;;5016054;28;20215;-59
2022/03/25 02:05:21;;;;;;;35.20;19.38;;;11.70;39.00;;;;;;5033841;28;20033;-58
2022/03/25 02:07:48;;;;;;;33.15;19.63;;;11.60;39.00;;;;;;5015875;28;20032;-59
2022/03/25 02:10:15;;;;;;;36.22;19.85;;;11.60;39.20;;;;;;5017168;28;20034;-57
2022/03/25 02:12:42;;;;;;;31.52;18.38;;;11.60;39.20;;;;;;5015206;28;20045;-59
2022/03/25 02:15:08;;;;;;;40.03;19.10;;;11.60;39.30;;;;;;5015749;28;20060;-58
2022/03/25 02:17:34;;;;;;;30.88;19.17;;;11.50;39.30;;;;;;5014765;28;20029;-56
2022/03/25 02:20:00;;;;;;;31.67;18.85;;;11.50;39.40;;;;;;5033536;28;20474;-59
2022/03/25 02:22:26;;;;;;;31.50;19.48;;;11.40;39.50;;;;;;5033811;28;20033;-58
2022/03/25 02:24:52;;;;;;;30.73;18.42;;;11.30;39.50;;;;;;5016268;28;20080;-59
2022/03/25 02:27:18;;;;;;;37.88;19.23;;;11.20;39.60;;;;;;5033730;28;20025;-59
2022/03/25 02:29:45;;;;;;;33.72;18.98;;;11.10;39.60;;;;;;5032501;28;20480;-57
2022/03/25 02:32:11;;;;;;;32.72;19.33;;;11.10;39.60;;;;;;5015892;28;20025;-57
2022/03/25 02:34:37;;;;;;;40.40;20.88;;;11.10;39.60;;;;;;5014822;28;20029;-59
2022/03/25 02:37:04;;;;;;;30.88;19.98;;;11.10;39.80;;;;;;5013892;28;20037;-57
2022/03/25 02:39:30;;;;;;;35.20;18.98;;;11.00;39.70;;;;;;5033272;28;20061;-59
2022/03/25 02:41:56;;;;;;;32.80;19.52;;;11.00;39.70;;;;;;5031985;28;20030;-59
2022/03/25 02:44:22;;;;;;;34.67;18.88;;;11.00;39.70;;;;;;5032926;28;20034;-60
2022/03/25 02:46:48;;;;;;;35.78;19.65;;;11.00;39.80;;;;;;5031877;28;20549;-59
2022/03/25 02:49:15;;;;;;;31.80;19.58;;;10.90;39.70;;;;;;5032601;28;20029;-59
2022/03/25 02:51:41;;;;;;;36.95;19.67;;;10.90;39.80;;;;;;5032175;28;20034;-61
2022/03/25 02:54:07;;;;;;;30.75;18.90;;;10.90;39.80;;;;;;5032491;28;20121;-58
2022/03/25 02:56:33;;;;;;;32.58;18.63;;;10.90;39.80;;;;;;5032297;28;20037;-59
2022/03/25 02:58:59;;;;;;;31.60;19.30;;;10.90;39.80;;;;;;5031922;28;20086;-58
2022/03/25 03:01:25;;;;;;;33.08;18.50;;;10.80;39.70;;;;;;5031926;28;20026;-58
2022/03/25 03:04:09;;;;;;;30.55;19.08;;;10.80;39.60;;;;;;5013993;28;20029;-59
2022/03/25 03:06:35;;;;;;;27.20;18.23;;;10.80;39.60;;;;;;5014587;28;20514;-58
2022/03/25 03:09:01;;;;;;;34.67;20.38;;;10.80;39.50;;;;;;5031653;28;20037;-58
2022/03/25 03:11:28;;;;;;;36.42;20.95;;;10.80;39.50;;;;;;5032043;28;20033;-57
2022/03/25 03:13:54;;;;;;;43.50;22.77;;;10.80;39.60;;;;;;5031488;28;20383;-58
2022/03/25 03:16:19;;;;;;;37.17;21.92;;;10.80;39.60;;;;;;5031890;28;20445;-57
2022/03/25 03:18:46;;;;;;;39.70;22.95;;;10.80;39.60;;;;;;5031257;28;20034;-58
2022/03/25 03:21:11;;;;;;;39.72;21.13;;;10.80;39.70;;;;;;5032151;28;20026;-58
2022/03/25 03:23:37;;;;;;;32.10;20.38;;;10.80;39.90;;;;;;5014350;28;20032;-59
2022/03/25 03:26:03;;;;;;;32.47;19.75;;;10.70;40.00;;;;;;5031143;28;20168;-59
2022/03/25 03:28:29;;;;;;;31.23;19.25;;;10.70;40.30;;;;;;5031928;28;20132;-59
2022/03/25 03:30:55;;;;;;;32.08;20.23;;;10.60;40.30;;;;;;5013623;28;20032;-60
2022/03/25 03:33:22;;;;;;;40.10;19.25;;;10.60;40.40;;;;;;5031961;28;20044;-60
2022/03/25 03:35:47;;;;;;;36.30;19.77;;;10.50;40.40;;;;;;5013228;28;20099;-60
2022/03/25 03:38:13;;;;;;;32.90;19.77;;;10.50;40.50;;;;;;5031829;28;20033;-58
2022/03/25 03:40:39;;;;;;;35.05;19.85;;;10.50;40.60;;;;;;5014193;28;20112;-59
2022/03/25 03:43:05;;;;;;;41.58;20.00;;;10.50;40.60;;;;;;5013499;28;20236;-58
2022/03/25 03:45:32;;;;;;;32.50;20.33;;;10.50;40.50;;;;;;5031901;28;20029;-59
2022/03/25 03:47:58;;;;;;;37.70;20.15;;;10.50;40.40;;;;;;5031100;28;20025;-57
2022/03/25 03:50:24;;;;;;;31.02;19.20;;;10.50;40.40;;;;;;5031666;28;20029;-58
2022/03/25 03:52:50;;;;;;;32.50;19.58;;;10.50;40.30;;;;;;5013323;28;20026;-58
2022/03/25 03:55:16;;;;;;;32.42;20.02;;;10.50;40.40;;;;;;5031074;28;20041;-56
2022/03/25 03:57:42;;;;;;;36.33;19.95;;;10.60;40.40;;;;;;5031637;28;20030;-59
2022/03/25 04:00:11;;;;;;;32.30;20.45;;;10.50;40.40;;;;;;5014100;28;20088;-59
2022/03/25 04:02:37;;;;;;;30.95;19.70;;;10.50;40.40;;;;;;5031451;28;20034;-53
2022/03/25 04:05:07;;;;;;;39.65;19.15;;;10.50;40.40;;;;;;5013721;28;20194;-59
2022/03/25 04:07:42;;;;;;;32.92;19.63;;;10.50;40.50;;;;;;5031790;28;20021;-59
2022/03/25 04:10:08;;;;;;;34.85;19.77;;;10.50;40.60;;;;;;5013392;28;20021;-56
2022/03/25 04:12:34;;;;;;;33.05;20.42;;;10.40;40.70;;;;;;5031846;28;20211;-59
2022/03/25 04:15:00;;;;;;;34.03;19.27;;;10.30;40.70;;;;;;5030982;28;20057;-57
2022/03/25 04:17:25;;;;;;;42.97;19.67;;;10.30;40.80;;;;;;5031307;28;20018;-55
2022/03/25 04:19:51;;;;;;;33.85;19.20;;;10.30;40.90;;;;;;5013262;28;20467;-59
2022/03/25 04:22:17;;;;;;;29.90;19.40;;;10.20;41.00;;;;;;5031464;28;20107;-56
2022/03/25 04:24:43;;;;;;;38.15;20.00;;;10.20;41.10;;;;;;5030291;28;20475;-58
2022/03/25 04:27:09;;;;;;;33.63;19.38;;;10.10;41.20;;;;;;5013120;28;20037;-57
2022/03/25 04:29:35;;;;;;;32.63;19.08;;;10.10;41.30;;;;;;5013934;28;20025;-57
2022/03/25 04:32:00;;;;;;;29.65;18.50;;;10.00;41.50;;;;;;5030641;28;20026;-60
2022/03/25 04:34:26;;;;;;;35.40;20.00;;;9.90;41.60;;;;;;5031256;28;20513;-57
2022/03/25 04:36:52;;;;;;;29.50;19.48;;;9.90;41.80;;;;;;5011607;28;20445;-59
2022/03/25 04:39:18;;;;;;;34.72;18.80;;;9.90;41.80;;;;;;5013424;28;20025;-56
2022/03/25 04:41:44;;;;;;;33.05;19.52;;;9.90;41.90;;;;;;5030768;28;20029;-59
2022/03/25 04:44:10;;;;;;;34.85;19.40;;;9.80;42.00;;;;;;5030235;28;20084;-55
2022/03/25 04:46:35;;;;;;;42.13;20.60;;;9.80;42.20;;;;;;5030940;28;20390;-56
2022/03/25 04:49:01;;;;;;;42.00;19.95;;;9.80;42.90;;;;;;5013309;28;20022;-53
2022/03/25 04:51:27;;;;;;;34.17;19.73;;;9.70;42.30;;;;;;5031084;28;20454;-53
2022/03/25 04:53:52;;;;;;;40.17;18.95;;;9.70;42.30;;;;;;5013191;28;20025;-57
2022/03/25 04:56:18;;;;;;;34.05;19.52;;;9.70;42.30;;;;;;5013540;28;20037;-54
2022/03/25 04:58:44;;;;;;;37.83;20.05;;;9.70;42.30;;;;;;5013920;28;20061;-59
2022/03/25 05:01:10;;;;;;;37.90;20.58;;;9.70;42.30;;;;;;5016559;28;20359;-54
2022/03/25 05:03:36;;;;;;;35.80;19.60;;;9.70;42.30;;;;;;5016967;28;20026;-57
2022/03/25 05:06:01;;;;;;;32.03;19.35;;;9.80;42.90;;;;;;5034485;28;20029;-54
2022/03/25 05:08:27;;;;;;;33.75;20.33;;;9.80;42.20;;;;;;5017319;28;20032;-56
2022/03/25 05:10:53;;;;;;;35.95;19.67;;;9.90;42.10;;;;;;5034234;28;20052;-55
2022/03/25 05:13:19;;;;;;;38.22;19.23;;;9.90;42.10;;;;;;5035176;28;20542;-58
2022/03/25 05:15:45;;;;;;;39.08;21.15;;;9.90;42.30;;;;;;5016902;28;20053;-56
2022/03/25 05:18:11;;;;;;;38.50;20.08;;;9.90;42.30;;;;;;5016606;28;20120;-57
2022/03/25 05:20:37;;;;;;;35.90;18.67;;;9.90;42.30;;;;;;5034811;28;20451;-58
2022/03/25 05:23:03;;;;;;;36.53;20.38;;;9.90;42.40;;;;;;5016474;28;20142;-60
2022/03/25 05:25:28;;;;;;;41.40;20.77;;;9.90;42.30;;;;;;5034411;28;20496;-62
2022/03/25 05:27:59;;;;;;;44.90;21.48;;;9.90;42.40;;;;;;5033821;28;20060;-59
2022/03/25 05:30:28;;;;;;;37.35;21.25;;;9.90;42.40;;;;;;5017708;28;20075;-59
2022/03/25 05:32:54;;;;;;;38.35;21.30;;;9.90;42.30;;;;;;5033890;28;20030;-60
2022/03/25 05:35:21;;;;;;;39.17;20.38;;;9.90;42.40;;;;;;5034075;28;20029;-55
2022/03/25 05:37:48;;;;;;;36.13;21.45;;;9.90;42.40;;;;;;5016390;28;20030;-56
2022/03/25 05:40:16;;;;;;;41.30;20.77;;;10.00;42.40;;;;;;5016027;28;20446;-56
2022/03/25 05:42:42;;;;;;;42.25;22.02;;;10.00;42.40;;;;;;5016465;28;20024;-57
2022/03/25 05:45:09;;;;;;;37.47;21.10;;;10.00;42.30;;;;;;5016137;28;20029;-58
2022/03/25 05:47:36;;;;;;;39.42;21.08;;;10.10;42.30;;;;;;5017317;28;20030;-59
2022/03/25 05:50:04;;;;;;;40.40;21.75;;;10.10;42.30;;;;;;5016115;28;20032;-58
2022/03/25 05:52:30;;;;;;;37.80;21.42;;;10.10;42.30;;;;;;5034129;28;20025;-57
2022/03/25 05:54:56;;;;;;;39.88;21.63;;;10.20;42.30;;;;;;5033313;28;20081;-58
2022/03/25 05:57:40;;;;;;;37.95;21.63;;;10.20;42.20;;;;;;5016266;28;20423;-58
2022/03/25 06:00:08;;;;;;;39.30;22.25;;;10.20;42.20;;;;;;5015526;28;20029;-58
2022/03/25 06:02:40;;;;;;;43.45;23.10;;;10.20;42.10;;;;;;5034398;28;20021;-57
2022/03/25 06:05:07;;;;;;;40.67;22.77;;;10.30;42.10;;;;;;5014917;28;20410;-51
2022/03/25 06:07:44;;;;;;;42.03;22.45;;;10.30;42.00;;;;;;5016187;28;20517;-60
2022/03/25 06:10:13;;;;;;;45.70;21.75;;;10.40;42.00;;;;;;5032428;28;20025;-53
2022/03/25 06:12:39;;;;;;;43.10;21.92;;;10.50;41.90;;;;;;5033742;28;20061;-54
2022/03/25 06:15:06;;;;;;;44.80;22.38;;;10.50;41.70;;;;;;5033468;28;20052;-52
2022/03/25 06:17:32;;;;;;;43.60;23.52;;;10.60;41.60;;;;;;5033812;28;20053;-53
2022/03/25 06:19:58;;;;;;;54.63;24.10;;;10.60;41.50;;;;;;5014830;28;20025;-56
2022/03/25 06:22:24;;;;;;;45.95;22.98;;;10.70;41.50;;;;;;5033048;28;20037;-52
2022/03/25 06:24:53;;;;;;;54.22;23.48;;;10.70;41.40;;;;;;5015254;28;20022;-51
2022/03/25 06:27:20;;;;;;;42.70;23.25;;;10.80;41.30;;;;;;5014915;28;20034;-57
2022/03/25 06:29:46;;;;;;;44.50;22.83;;;10.90;41.10;;;;;;5033027;28;20501;-51
2022/03/25 06:32:12;;;;;;;50.38;23.30;;;11.10;41.00;;;;;;4998558;28;20025;-55
2022/03/25 06:34:37;;;;;;;47.20;24.05;;;11.10;40.90;;;;;;5015446;28;20539;-57
2022/03/25 06:37:04;;;;;;;41.42;23.48;;;11.30;40.70;;;;;;5014366;28;20037;-54
2022/03/25 06:39:30;;;;;;;42.00;24.02;;;11.40;40.60;;;;;;5015255;28;20053;-57
2022/03/25 06:41:56;;;;;;;40.88;23.60;;;11.50;40.40;;;;;;5032070;28;20088;-56
2022/03/25 06:44:22;;;;;;;52.92;24.27;;;11.60;40.20;;;;;;5015304;28;20033;-54
2022/03/25 06:46:48;;;;;;;46.63;24.98;;;11.70;40.10;;;;;;5032936;28;20458;-52
2022/03/25 06:49:14;;;;;;;71.28;36.00;;;11.70;39.90;;;;;;5032303;28;20037;-53
2022/03/25 06:51:40;;;;;;;62.67;34.10;;;11.80;39.80;;;;;;5015177;28;20041;-55
2022/03/25 06:54:06;;;;;;;56.65;30.55;;;11.90;39.70;;;;;;5014246;28;20088;-53
2022/03/25 06:56:35;;;;;;;62.00;32.85;;;12.00;39.50;;;;;;5014884;28;20462;-56
2022/03/25 06:59:01;;;;;;;59.20;27.58;;;12.10;39.20;;;;;;5014334;28;20025;-57
2022/03/25 07:01:27;;;;;;;56.13;27.17;;;12.30;39.10;;;;;;5032934;28;20026;-52
2022/03/25 07:03:54;;;;;;;53.30;27.30;;;12.40;38.80;;;;;;5013867;28;20516;-57
2022/03/25 07:06:24;;;;;;;64.53;33.30;;;12.60;38.70;;;;;;5014116;28;20021;-57
2022/03/25 07:08:54;;;;;;;58.13;29.80;;;12.70;38.30;;;;;;5014643;28;20474;-55
2022/03/25 07:11:21;;;;;;;48.42;26.15;;;12.80;37.90;;;;;;5031429;28;20029;-55
2022/03/25 07:13:47;;;;;;;45.72;26.10;;;13.00;37.30;;;;;;5031581;28;20037;-55
2022/03/25 07:16:13;;;;;;;49.45;23.92;;;13.10;36.80;;;;;;5013440;28;20033;-59
2022/03/25 07:18:40;;;;;;;47.03;23.38;;;13.30;35.90;;;;;;5014345;28;20117;-51
2022/03/25 07:21:05;;;;;;;52.63;22.92;;;13.40;35.00;;;;;;5012747;28;20021;-55
2022/03/25 07:23:32;;;;;;;40.80;22.83;;;13.60;34.70;;;;;;5013902;28;20021;-55
2022/03/25 07:25:57;;;;;;;42.17;23.48;;;13.90;34.50;;;;;;5031690;28;20061;-55
2022/03/25 07:28:23;;;;;;;44.00;23.13;;;16.10;34.10;;;;;;5014054;28;20033;-52
2022/03/25 07:30:49;;;;;;;39.63;23.40;;;19.60;30.00;;;;;;5013994;28;20072;-57
2022/03/25 07:33:15;;;;;;;51.50;24.77;;;22.60;27.20;;;;;;5013463;28;20029;-53
2022/03/25 07:35:41;;;;;;;43.42;23.15;;;25.00;25.30;;;;;;5031736;28;20043;-51
2022/03/25 07:38:07;;;;;;;40.15;23.83;;;27.20;23.80;;;;;;5031017;28;20060;-56
2022/03/25 07:40:33;;;;;;;51.92;25.80;;;28.70;22.60;;;;;;5031909;28;20029;-55
2022/03/25 07:43:00;;;;;;;44.75;24.40;;;30.20;22.20;;;;;;5030986;28;20101;-60
2022/03/25 07:45:26;;;;;;;61.20;25.73;;;31.90;21.20;;;;;;5013463;28;20415;-55
2022/03/25 07:47:52;;;;;;;51.38;25.52;;;33.00;20.60;;;;;;5031679;28;20026;-57
2022/03/25 07:50:21;;;;;;;47.90;23.58;;;34.00;20.20;;;;;;5013633;28;20021;-57
2022/03/25 07:52:47;;;;;;;37.97;23.23;;;35.00;19.40;;;;;;5014218;28;20057;-56
2022/03/25 07:55:17;;;;;;;41.28;24.60;;;35.00;18.90;;;;;;5030958;28;20482;-57
2022/03/25 07:57:43;;;;;;;48.85;24.85;;;35.30;18.60;;;;;;5013929;28;20036;-59
2022/03/25 08:00:13;;;;;;;41.67;23.60;;;36.00;18.70;;;;;;5031099;28;20097;-60
2022/03/25 08:02:46;;;;;;;37.80;22.27;;;37.10;18.50;;;;;;5031806;28;20029;-59
2022/03/25 08:05:13;;;;;;;33.08;23.08;;;37.80;17.90;;;;;;5013883;28;20033;-58
2022/03/25 08:07:48;;;;;;;27.92;22.33;;;37.80;17.70;;;;;;5032209;28;20030;-59
2022/03/25 08:10:20;;;;;;;42.72;23.17;;;37.60;17.60;;;;;;5013956;28;20041;-60
2022/03/25 08:12:46;;;;;;;36.42;23.35;;;37.60;18.10;;;;;;5013932;28;20590;-62
2022/03/25 08:15:12;;;;;;;39.10;23.27;;;38.10;17.70;;;;;;5031436;28;20053;-59
2022/03/25 08:17:57;;;;;;;29.60;21.17;;;38.50;17.60;;;;;;5014111;28;20034;-60
2022/03/25 08:20:37;;;;;;;39.88;23.73;;;38.20;17.50;;;;;;5026194;28;20108;-58
2022/03/25 08:23:04;;;;;;;31.67;21.77;;;38.40;17.40;;;;;;5031737;28;20029;-63
2022/03/25 08:28:16;;;;;;;40.78;23.25;;;38.70;17.60;;;;;;5031060;28;20117;-58
2022/03/25 08:30:42;;;;;;;39.13;23.88;;;38.60;17.40;;;;;;5013708;28;20035;-59
2022/03/25 08:33:09;;;;;;;34.55;23.35;;;38.50;17.30;;;;;;5031073;28;20462;-60
2022/03/25 08:35:36;;;;;;;35.25;22.98;;;37.80;17.20;;;;;;5034883;28;20041;-59
2022/03/25 08:38:03;;;;;;;33.95;23.38;;;37.60;17.30;;;;;;5035123;28;20088;-59
2022/03/25 08:40:30;;;;;;;31.35;23.05;;;37.30;17.40;;;;;;5016769;28;20033;-62
2022/03/25 08:42:56;;;;;;;49.08;23.25;;;36.70;17.50;;;;;;5035922;28;20462;-58
2022/03/25 08:45:22;;;;;;;46.40;24.23;;;34.80;17.40;;;;;;5017734;28;20033;-55
2022/03/25 08:47:48;;;;;;;35.60;23.33;;;32.40;18.10;;;;;;5035775;28;20132;-62
2022/03/25 08:50:16;;;;;;;45.95;25.30;;;29.90;18.80;;;;;;5017359;28;20040;-59
2022/03/25 08:52:43;;;;;;;40.97;24.13;;;27.90;19.60;;;;;;5017596;28;20091;-58
2022/03/25 08:55:09;;;;;;;48.50;25.42;;;26.80;20.40;;;;;;5034506;28;20029;-56
2022/03/25 08:57:39;;;;;;;35.35;23.95;;;25.90;20.80;;;;;;5035488;28;20026;-58
2022/03/25 09:00:10;;;;;;;36.13;23.40;;;25.30;21.00;;;;;;5034889;28;20100;-65
2022/03/25 09:02:38;;;;;;;47.65;25.15;;;24.20;21.60;;;;;;5035155;28;20017;-55
2022/03/25 09:05:05;;;;;;;49.72;25.98;;;23.20;22.50;;;;;;5035771;28;20033;-58
2022/03/25 09:07:31;;;;;;;43.55;24.98;;;22.60;22.90;;;;;;5035496;28;20040;-58
2022/03/25 09:09:57;;;;;;;41.42;23.45;;;22.20;23.70;;;;;;5035704;28;20025;-55
2022/03/25 09:12:23;;;;;;;45.63;23.55;;;21.90;23.50;;;;;;5017137;28;20045;-59
2022/03/25 09:14:49;;;;;;;37.50;22.40;;;21.60;23.80;;;;;;5035574;28;20067;-58
2022/03/25 09:17:15;;;;;;;40.55;23.45;;;21.30;24.00;;;;;;5035282;28;20033;-59
2022/03/25 09:19:42;;;;;;;38.67;24.27;;;20.80;24.40;;;;;;5017726;28;20128;-57
2022/03/25 09:22:09;;;;;;;41.53;22.10;;;20.40;24.70;;;;;;5034668;28;20033;-58
2022/03/25 09:24:35;;;;;;;53.80;23.42;;;20.10;25.00;;;;;;5017334;28;20025;-60
2022/03/25 09:27:01;;;;;;;49.78;22.98;;;20.10;25.20;;;;;;5017017;28;20040;-57
2022/03/25 09:29:27;;;;;;;41.75;22.90;;;19.80;25.50;;;;;;5017020;28;20198;-59
2022/03/25 09:31:52;;;;;;;47.40;20.77;;;19.60;25.60;;;;;;5035123;28;20071;-57
2022/03/25 09:37:02;;;;;;;;;;;19.30;25.60;;;;;;5035488;28;20053;-57
2022/03/25 09:39:28;;;;;;;38.58;20.73;;;19.30;25.90;;;;;;5034709;28;19906;-56
2022/03/25 09:41:54;;;;;;;52.97;23.23;;;19.10;26.00;;;;;;5016963;28;20034;-59
2022/03/25 09:44:20;;;;;;;39.47;20.40;;;18.80;26.30;;;;;;5034740;28;20037;-58
2022/03/25 09:46:47;;;;;;;43.60;22.70;;;18.70;26.30;;;;;;5034544;28;20025;-60
2022/03/25 09:49:13;;;;;;;57.75;22.25;;;18.70;26.20;;;;;;5034475;28;20125;-58
2022/03/25 09:51:41;;;;;;;52.72;21.45;;;18.70;26.40;;;;;;5035147;28;20060;-58
2022/03/25 09:54:08;;;;;;;46.05;22.50;;;18.90;26.40;;;;;;5034691;28;20022;-59
2022/03/25 09:56:34;;;;;;;37.30;20.77;;;18.80;26.60;;;;;;5034809;28;20072;-57
2022/03/25 09:59:01;;;;;;;44.45;21.67;;;18.90;26.40;;;;;;5034744;28;20026;-57
2022/03/25 10:01:26;;;;;;;35.65;18.88;;;18.80;26.50;;;;;;5016466;28;20025;-59
2022/03/25 10:03:52;;;;;;;44.47;20.52;;;18.70;26.40;;;;;;5034441;28;20032;-58
2022/03/25 10:06:18;;;;;;;39.30;22.10;;;18.70;26.50;;;;;;5034193;28;20036;-59
2022/03/25 10:08:45;;;;;;;40.75;22.20;;;18.80;26.50;;;;;;5034431;28;20033;-58
2022/03/25 10:11:18;;;;;;;42.67;23.98;;;18.90;26.40;;;;;;5016006;28;20056;-56
2022/03/25 10:13:43;;;;;;;41.50;23.80;;;19.00;26.50;;;;;;5016607;28;20049;-59
2022/03/25 10:16:30;;;;;;;43.28;23.38;;;19.10;26.50;;;;;;5034128;28;20104;-55
2022/03/25 10:18:57;;;;;;;36.75;22.80;;;19.10;26.60;;;;;;5016567;28;20054;-54
2022/03/25 10:21:24;;;;;;;51.90;24.63;;;19.20;26.50;;;;;;5033681;28;20030;-59
2022/03/25 10:23:50;;;;;;;39.55;22.45;;;19.10;26.50;;;;;;5035014;28;20103;-58
2022/03/25 10:26:17;;;;;;;38.75;21.95;;;19.10;26.50;;;;;;5034935;28;20029;-55
2022/03/25 10:28:45;;;;;;;48.25;26.45;;;18.90;26.50;;;;;;5018090;28;20089;-58
2022/03/25 10:31:18;;;;;;;31.73;19.58;;;18.80;26.20;;;;;;5017193;28;20060;-64
2022/03/25 10:33:45;;;;;;;46.22;33.30;;;19.00;26.20;;;;;;5016802;28;20034;-55
2022/03/25 10:36:15;;;;;;;37.53;21.77;;;19.00;26.10;;;;;;5034169;28;20455;-52
2022/03/25 10:38:48;;;;;;;31.13;19.70;;;19.10;26.10;;;;;;5034385;28;20032;-54
2022/03/25 10:41:19;;;;;;;36.53;20.48;;;18.90;26.10;;;;;;5033956;28;20516;-59
2022/03/25 10:44:03;;;;;;;38.08;21.33;;;18.90;26.20;;;;;;5034678;28;20040;-58
2022/03/25 10:46:28;;;;;;;39.58;20.58;;;19.00;26.10;;;;;;5033321;28;20033;-57
2022/03/25 10:48:54;;;;;;;44.28;22.15;;;19.10;26.30;;;;;;5015266;28;20055;-55
2022/03/25 10:51:20;;;;;;;42.08;24.15;;;19.00;26.50;;;;;;5014880;28;20025;-55
2022/03/25 10:53:54;;;;;;;40.05;22.33;;;18.80;26.60;;;;;;5032904;28;20052;-57
2022/03/25 10:56:20;;;;;;;;;;;19.00;26.60;;;;;;5032260;28;20033;-60
2022/03/25 10:58:53;;;;;;;37.88;22.02;;;19.30;26.60;;;;;;5015688;28;19912;-58
2022/03/25 11:01:19;;;;;;;39.58;23.92;;;19.50;26.40;;;;;;5033639;28;20076;-56
2022/03/25 11:03:50;;;;;;;57.35;31.35;;;19.60;26.30;;;;;;5033916;28;20478;-56
2022/03/25 11:06:18;;;;;;;59.22;29.60;;;19.70;26.30;;;;;;5033039;28;20040;-60
2022/03/25 11:08:45;;;;;;;38.28;24.33;;;19.70;26.30;;;;;;4998514;28;20030;-58
2022/03/25 11:11:11;;;;;;;55.67;30.15;;;19.80;26.30;;;;;;5032735;28;20080;-56
2022/03/25 11:13:38;;;;;;;43.58;24.50;;;19.90;26.30;;;;;;5013955;28;20410;-58
2022/03/25 11:16:07;;;;;;;39.97;22.70;;;20.00;26.20;;;;;;5032654;28;20123;-58
2022/03/25 11:18:35;;;;;;;43.50;25.52;;;20.00;26.10;;;;;;5031685;28;20029;-54
2022/03/25 11:21:04;;;;;;;42.70;24.52;;;19.80;25.90;;;;;;5031959;28;20053;-56
2022/03/25 11:23:46;;;;;;;46.30;24.67;;;19.60;26.20;;;;;;5031464;28;20095;-58
2022/03/25 11:26:16;;;;;;;41.20;23.25;;;19.50;26.20;;;;;;5032338;28;20386;-57
2022/03/25 11:28:44;;;;;;;36.65;21.45;;;19.60;26.20;;;;;;5014395;28;20025;-58
2022/03/25 11:31:09;;;;;;;47.55;24.60;;;19.80;26.00;;;;;;5014396;28;20034;-57
2022/03/25 11:34:09;;;;;;;40.38;25.83;;;19.90;25.80;;;;;;5031549;28;20117;-58
2022/03/25 11:36:45;;;;;;;41.78;24.25;;;20.10;25.60;;;;;;5013916;28;20285;-56
2022/03/25 11:39:24;;;;;;;47.22;23.48;;;20.30;25.50;;;;;;5014517;28;20027;-57
2022/03/25 11:41:53;;;;;;;69.05;24.42;;;20.40;25.30;;;;;;5014466;28;20382;-58
2022/03/25 11:44:25;;;;;;;58.58;33.67;;;20.40;25.00;;;;;;5013514;28;20034;-58
2022/03/25 11:47:00;;;;;;;44.42;25.75;;;20.40;25.00;;;;;;5032070;28;20092;-55
2022/03/25 11:49:27;;;;;;;41.08;23.77;;;20.40;24.80;;;;;;5013534;28;20030;-54
2022/03/25 11:51:53;;;;;;;32.35;23.45;;;20.40;25.00;;;;;;5031861;28;20033;-56
2022/03/25 11:54:38;;;;;;;36.45;25.00;;;20.50;24.90;;;;;;5031624;28;20021;-64
2022/03/25 11:57:05;;;;;;;42.30;25.40;;;20.70;24.70;;;;;;5031693;28;20029;-58
2022/03/25 11:59:55;;;;;;;44.67;26.38;;;20.70;24.70;;;;;;5013379;28;20136;-58
2022/03/25 12:02:33;;;;;;;40.25;26.30;;;20.70;24.90;;;;;;5031038;28;20025;-56
2022/03/25 12:05:02;;;;;;;39.80;25.92;;;20.70;25.00;;;;;;5031573;28;20490;-54
2022/03/25 12:07:28;;;;;;;33.45;24.33;;;20.60;24.70;;;;;;5013282;28;20029;-56
2022/03/25 12:09:54;;;;;;;43.22;25.70;;;20.70;24.70;;;;;;5036124;28;20104;-57
2022/03/25 12:12:40;;;;;;;43.92;25.55;;;20.80;24.70;;;;;;5017441;28;20131;-55
2022/03/25 12:15:13;;;;;;;57.25;27.17;;;20.80;24.70;;;;;;5035717;28;20030;-58
2022/03/25 12:17:39;;;;;;;40.33;23.70;;;20.90;24.70;;;;;;5035450;28;20084;-59
2022/03/25 12:20:06;;;;;;;52.88;35.97;;;20.90;24.60;;;;;;5035852;28;20029;-59
2022/03/25 12:22:34;;;;;;;91.18;37.45;;;20.80;24.60;;;;;;5034964;28;20056;-58
2022/03/25 12:25:16;;;;;;;54.42;31.77;;;20.80;24.80;;;;;;5017551;28;20066;-58
2022/03/25 12:27:42;;;;;;;56.42;28.02;;;20.90;24.50;;;;;;5034981;28;20029;-57
2022/03/25 12:30:09;;;;;;;41.80;24.25;;;20.90;24.60;;;;;;5035283;28;20109;-58
2022/03/25 12:32:37;;;;;;;47.60;25.20;;;20.90;24.50;;;;;;5034510;28;20431;-55
2022/03/25 12:35:10;;;;;;;39.00;22.52;;;21.00;24.40;;;;;;5035054;28;20533;-56